America — WDE6076 — position and weather

sailwx.info

Track history (hours):
 
Tides and Currents Weather Stations Pressure Air Temp Water Temp Dewpoint Dewpoint Depression Visibility Wind Speed Wind Dir Waves Ship Positions

America

Owner: ET Yacht, LLC, San Diego, CA. More information available from US FCC via Universal Licensing System and Coast Guard Vessel Documentation Center.

Last reported at 2015-Jun-07 18:28 UTC. Time now 2015-Jul-02 00:54 UTC.
Position N 32°46' W 117°21'.
Warning: this ship's position is 24 days out of date.

Length 29 m.

Type: Sailing vessel. MMSI: 367375550.

Date/timePositionNaut miles runAvg speedWind from/ knotsBaromVisibWave heightAir tempDewpointWater temp
2015-Jun-07 18:28N 32°46' W 117°21'9 9.6
2015-Jun-07 17:33N 32°53' W 117°25'10 9.5
2015-Jun-07 16:33N 33°02' W 117°30'  
2015-Jun-05 09:27N 33°20' W 117°43'9 8.8
2015-Jun-05 08:25N 33°12' W 117°38'7 8.6
2015-Jun-05 07:33N 33°06' W 117°33'9 8.3
2015-Jun-05 06:31N 32°59' W 117°28'8 8.2
2015-Jun-05 05:33N 32°52' W 117°24'9 8.3
2015-Jun-05 04:32N 32°44' W 117°19'6 2.9
2015-Jun-05 02:26N 32°43' W 117°12'  
Track history (hours):
 
Tides and Currents Weather Stations Pressure Air Temp Water Temp Dewpoint Dewpoint Depression Visibility Wind Speed Wind Dir Waves Ship Positions

America

Owner: ET Yacht, LLC, San Diego, CA. More information available from US FCC via Universal Licensing System and Coast Guard Vessel Documentation Center.

Last reported at 2015-Jun-07 18:28 UTC. Time now 2015-Jul-02 00:54 UTC.
Position N 32°46' W 117°21'.
Warning: this ship's position is 24 days out of date.

Length 29 m.

Type: Sailing vessel. MMSI: 367375550.

Date/timePositionNaut miles runAvg speedWind from/ knotsBaromVisibWave heightAir tempDewpointWater temp
2015-Jun-07 18:28N 32°46' W 117°21'9 9.6
2015-Jun-07 17:33N 32°53' W 117°25'10 9.5
2015-Jun-07 16:33N 33°02' W 117°30'  
2015-Jun-05 09:27N 33°20' W 117°43'9 8.8
2015-Jun-05 08:25N 33°12' W 117°38'7 8.6
2015-Jun-05 07:33N 33°06' W 117°33'9 8.3
2015-Jun-05 06:31N 32°59' W 117°28'8 8.2
2015-Jun-05 05:33N 32°52' W 117°24'9 8.3
2015-Jun-05 04:32N 32°44' W 117°19'6 2.9
2015-Jun-05 02:26N 32°43' W 117°12'  

Dump ship's entire track history